This is the latest recevied weather packets stored in our database for station/object EA3ANS-1. If no packets are shown the sender has not sent any weather packets the latest 10 day(s).
| Time | Temp. | Humidity | Pressure | Rain* | Wind** | Luminosity | Snow |
|---|---|---|---|---|---|---|---|
| 1777629666 | 22.22° C | - | 1021.1 hPa | 0 mm | 4.47 m/s, 17° | - | - |
| 1777629063 | 21.67° C | - | 1021.2 hPa | 0 mm | 2.68 m/s, 96° | - | - |
| 1777628465 | 22.22° C | - | 1021.2 hPa | 0 mm | 4.02 m/s, 73° | - | - |
| 1777627868 | 21.67° C | - | 1021.2 hPa | 0 mm | 3.13 m/s, 93° | - | - |
| 1777627271 | 21.11° C | - | 1021.2 hPa | 0 mm | 3.13 m/s, 118° | - | - |
| 1777626673 | 21.67° C | - | 1021.2 hPa | 0 mm | 1.34 m/s, 200° | - | - |
| 1777626076 | 21.11° C | - | 1021.1 hPa | 0 mm | 2.68 m/s, 107° | - | - |
| 1777625479 | 21.11° C | - | 1021.1 hPa | 0 mm | 2.24 m/s, 94° | - | - |
| 1777624871 | 20.56° C | - | 1021.2 hPa | 0 mm | 2.24 m/s, 46° | - | - |
| 1777624273 | 19.44° C | - | 1021.2 hPa | 0 mm | 0.89 m/s, 231° | - | - |
| 1777623676 | 18.89° C | - | 1021.2 hPa | 0 mm | 0.45 m/s, 288° | - | - |
| 1777623078 | 18.33° C | - | 1021.1 hPa | 0 mm | 1.34 m/s, 274° | - | - |
| 1777622481 | 17.22° C | - | 1020.9 hPa | 0 mm | 0.89 m/s, 278° | - | - |
| 1777621884 | 17.22° C | - | 1020.9 hPa | 0 mm | 1.34 m/s, 319° | - | - |
| 1777621288 | 16.67° C | - | 1020.8 hPa | 0 mm | 1.34 m/s, 309° | - | - |
| 1777620683 | 16.11° C | - | 1020.7 hPa | 0 mm | 1.34 m/s, 309° | - | - |
| 1777620085 | 16.11° C | - | 1020.8 hPa | 0 mm | 1.34 m/s, 329° | - | - |
| 1777619488 | 15.56° C | - | 1020.8 hPa | 0 mm | 1.34 m/s, 330° | - | - |
| 1777618890 | 15.56° C | - | 1020.7 hPa | 0 mm | 1.34 m/s, 335° | - | - |
| 1777618293 | 15.56° C | - | 1020.7 hPa | 0 mm | 0.89 m/s, 300° | - | - |
| 1777617695 | 15.56° C | - | 1020.4 hPa | 0 mm | 0.45 m/s, 253° | - | - |
| 1777617089 | 15.56° C | - | 1020.6 hPa | 0 mm | 0 m/s | - | - |
| 1777616484 | 15° C | - | 1020.6 hPa | 0 mm | 0.45 m/s, 336° | - | - |
| 1777615885 | 14.44° C | - | 1020.5 hPa | 0 mm | 1.34 m/s, 335° | - | - |
| 1777615288 | 13.89° C | - | 1020.3 hPa | 0 mm | 1.79 m/s, 291° | - | - |
* Rain latest hour (hover to see other rain measurements)
** Current wind speed in m/s (hover to see current wind gust speed)